sensor_id;sensor_type;location;lat;lon;timestamp;temperature;humidity
16313;DHT22;8265;52.622;13.296;2023-08-08T00:01:12;13.30;70.30
16313;DHT22;8265;52.622;13.296;2023-08-08T00:06:32;13.10;71.20
16313;DHT22;8265;52.622;13.296;2023-08-08T00:11:53;13.10;71.60
16313;DHT22;8265;52.622;13.296;2023-08-08T00:17:14;13.00;72.10
16313;DHT22;8265;52.622;13.296;2023-08-08T00:22:35;12.80;72.80
16313;DHT22;8265;52.622;13.296;2023-08-08T00:27:56;12.80;72.70
16313;DHT22;8265;52.622;13.296;2023-08-08T00:33:17;12.70;73.30
16313;DHT22;8265;52.622;13.296;2023-08-08T00:38:38;12.70;73.30
16313;DHT22;8265;52.622;13.296;2023-08-08T00:43:59;12.50;73.80
16313;DHT22;8265;52.622;13.296;2023-08-08T00:49:20;12.50;73.60
16313;DHT22;8265;52.622;13.296;2023-08-08T00:54:41;12.50;74.00
16313;DHT22;8265;52.622;13.296;2023-08-08T01:00:02;12.50;74.10
16313;DHT22;8265;52.622;13.296;2023-08-08T01:05:23;12.50;73.80
16313;DHT22;8265;52.622;13.296;2023-08-08T01:10:44;12.50;73.30
16313;DHT22;8265;52.622;13.296;2023-08-08T01:16:05;12.40;73.40
16313;DHT22;8265;52.622;13.296;2023-08-08T01:21:27;12.30;73.50
16313;DHT22;8265;52.622;13.296;2023-08-08T01:26:47;12.30;73.50
16313;DHT22;8265;52.622;13.296;2023-08-08T01:32:08;12.40;72.80
16313;DHT22;8265;52.622;13.296;2023-08-08T01:37:29;12.50;71.80
16313;DHT22;8265;52.622;13.296;2023-08-08T01:42:50;12.50;71.10
16313;DHT22;8265;52.622;13.296;2023-08-08T01:48:11;12.50;71.30
16313;DHT22;8265;52.622;13.296;2023-08-08T01:53:32;12.50;70.50
16313;DHT22;8265;52.622;13.296;2023-08-08T01:58:53;12.60;69.90
16313;DHT22;8265;52.622;13.296;2023-08-08T02:04:14;12.60;70.00
16313;DHT22;8265;52.622;13.296;2023-08-08T02:09:35;12.60;69.60
16313;DHT22;8265;52.622;13.296;2023-08-08T02:14:56;12.60;69.40
16313;DHT22;8265;52.622;13.296;2023-08-08T02:20:17;12.60;69.50
16313;DHT22;8265;52.622;13.296;2023-08-08T02:25:38;12.60;69.60
16313;DHT22;8265;52.622;13.296;2023-08-08T02:30:59;12.60;69.80
16313;DHT22;8265;52.622;13.296;2023-08-08T02:36:20;12.50;70.20
16313;DHT22;8265;52.622;13.296;2023-08-08T02:41:41;12.30;71.40
16313;DHT22;8265;52.622;13.296;2023-08-08T02:47:02;12.10;72.10
16313;DHT22;8265;52.622;13.296;2023-08-08T02:52:23;12.10;72.50
16313;DHT22;8265;52.622;13.296;2023-08-08T02:57:44;12.00;73.20
16313;DHT22;8265;52.622;13.296;2023-08-08T03:03:05;12.00;74.10
16313;DHT22;8265;52.622;13.296;2023-08-08T03:08:26;11.90;74.90
16313;DHT22;8265;52.622;13.296;2023-08-08T03:13:47;11.80;75.50
16313;DHT22;8265;52.622;13.296;2023-08-08T03:19:08;11.70;76.20
16313;DHT22;8265;52.622;13.296;2023-08-08T03:24:29;11.70;76.50
16313;DHT22;8265;52.622;13.296;2023-08-08T03:29:50;11.70;76.80
16313;DHT22;8265;52.622;13.296;2023-08-08T03:35:11;11.70;77.40
16313;DHT22;8265;52.622;13.296;2023-08-08T03:40:32;11.80;77.00
16313;DHT22;8265;52.622;13.296;2023-08-08T03:45:53;11.90;77.00
16313;DHT22;8265;52.622;13.296;2023-08-08T03:51:14;11.90;77.20
16313;DHT22;8265;52.622;13.296;2023-08-08T03:56:35;12.00;77.10
16313;DHT22;8265;52.622;13.296;2023-08-08T04:01:56;12.00;77.20
16313;DHT22;8265;52.622;13.296;2023-08-08T04:07:17;12.10;77.20
16313;DHT22;8265;52.622;13.296;2023-08-08T04:12:38;12.10;77.40
16313;DHT22;8265;52.622;13.296;2023-08-08T04:17:59;12.10;77.40
16313;DHT22;8265;52.622;13.296;2023-08-08T04:23:20;12.10;77.70
16313;DHT22;8265;52.622;13.296;2023-08-08T04:28:41;12.00;78.00
16313;DHT22;8265;52.622;13.296;2023-08-08T04:34:02;12.10;78.10
16313;DHT22;8265;52.622;13.296;2023-08-08T04:39:23;12.10;78.60
16313;DHT22;8265;52.622;13.296;2023-08-08T04:44:44;12.20;78.30
16313;DHT22;8265;52.622;13.296;2023-08-08T04:50:05;12.30;78.20
16313;DHT22;8265;52.622;13.296;2023-08-08T04:55:26;12.40;78.30
16313;DHT22;8265;52.622;13.296;2023-08-08T05:00:47;12.50;78.40
16313;DHT22;8265;52.622;13.296;2023-08-08T05:06:08;12.50;78.00
16313;DHT22;8265;52.622;13.296;2023-08-08T05:11:29;12.50;78.30
16313;DHT22;8265;52.622;13.296;2023-08-08T05:16:50;12.50;78.60
16313;DHT22;8265;52.622;13.296;2023-08-08T05:22:11;12.50;79.00
16313;DHT22;8265;52.622;13.296;2023-08-08T05:27:32;12.50;78.70
16313;DHT22;8265;52.622;13.296;2023-08-08T05:32:53;12.60;78.50
16313;DHT22;8265;52.622;13.296;2023-08-08T05:38:14;12.70;78.10
16313;DHT22;8265;52.622;13.296;2023-08-08T05:43:36;13.10;77.60
16313;DHT22;8265;52.622;13.296;2023-08-08T05:48:56;13.30;76.40
16313;DHT22;8265;52.622;13.296;2023-08-08T05:54:17;13.50;76.20
16313;DHT22;8265;52.622;13.296;2023-08-08T05:59:38;13.50;76.00
16313;DHT22;8265;52.622;13.296;2023-08-08T06:04:59;13.50;76.20
16313;DHT22;8265;52.622;13.296;2023-08-08T06:10:20;13.70;76.20
16313;DHT22;8265;52.622;13.296;2023-08-08T06:15:41;13.90;75.10
16313;DHT22;8265;52.622;13.296;2023-08-08T06:21:02;14.10;74.70
16313;DHT22;8265;52.622;13.296;2023-08-08T06:26:23;14.00;74.40
16313;DHT22;8265;52.622;13.296;2023-08-08T06:31:44;14.10;74.40
16313;DHT22;8265;52.622;13.296;2023-08-08T06:37:05;14.70;73.60
16313;DHT22;8265;52.622;13.296;2023-08-08T06:42:26;15.00;72.70
16313;DHT22;8265;52.622;13.296;2023-08-08T06:47:47;15.00;72.10
16313;DHT22;8265;52.622;13.296;2023-08-08T06:53:08;14.70;73.10
16313;DHT22;8265;52.622;13.296;2023-08-08T06:58:29;14.60;73.30
16313;DHT22;8265;52.622;13.296;2023-08-08T07:03:50;14.60;74.00
16313;DHT22;8265;52.622;13.296;2023-08-08T07:09:11;14.60;73.40
16313;DHT22;8265;52.622;13.296;2023-08-08T07:14:32;14.70;73.20
16313;DHT22;8265;52.622;13.296;2023-08-08T07:19:53;15.00;72.50
16313;DHT22;8265;52.622;13.296;2023-08-08T07:25:14;15.40;70.90
16313;DHT22;8265;52.622;13.296;2023-08-08T07:30:35;15.70;70.50
16313;DHT22;8265;52.622;13.296;2023-08-08T07:35:56;15.80;70.80
16313;DHT22;8265;52.622;13.296;2023-08-08T07:41:17;15.80;70.30
16313;DHT22;8265;52.622;13.296;2023-08-08T07:46:38;16.00;69.70
16313;DHT22;8265;52.622;13.296;2023-08-08T07:51:59;16.10;68.70
16313;DHT22;8265;52.622;13.296;2023-08-08T07:57:20;16.20;67.80
16313;DHT22;8265;52.622;13.296;2023-08-08T08:02:41;16.10;67.60
16313;DHT22;8265;52.622;13.296;2023-08-08T08:08:02;16.00;69.30
16313;DHT22;8265;52.622;13.296;2023-08-08T08:13:23;16.80;66.70
16313;DHT22;8265;52.622;13.296;2023-08-08T08:18:44;16.90;67.00
16313;DHT22;8265;52.622;13.296;2023-08-08T08:24:05;16.80;66.60
16313;DHT22;8265;52.622;13.296;2023-08-08T08:29:26;16.60;66.20
16313;DHT22;8265;52.622;13.296;2023-08-08T08:34:47;16.60;66.20
16313;DHT22;8265;52.622;13.296;2023-08-08T08:40:08;16.30;68.40
16313;DHT22;8265;52.622;13.296;2023-08-08T08:45:29;16.70;67.40
16313;DHT22;8265;52.622;13.296;2023-08-08T08:50:49;16.60;66.40
16313;DHT22;8265;52.622;13.296;2023-08-08T08:56:10;16.70;65.40
16313;DHT22;8265;52.622;13.296;2023-08-08T09:01:31;17.00;65.10
16313;DHT22;8265;52.622;13.296;2023-08-08T09:06:52;17.30;64.40
16313;DHT22;8265;52.622;13.296;2023-08-08T09:12:13;18.00;62.50
16313;DHT22;8265;52.622;13.296;2023-08-08T09:17:34;18.10;62.20
16313;DHT22;8265;52.622;13.296;2023-08-08T09:22:56;17.70;61.90
16313;DHT22;8265;52.622;13.296;2023-08-08T09:28:17;17.60;62.50
16313;DHT22;8265;52.622;13.296;2023-08-08T09:33:38;17.70;63.30
16313;DHT22;8265;52.622;13.296;2023-08-08T09:38:58;18.20;61.70
16313;DHT22;8265;52.622;13.296;2023-08-08T09:44:22;18.40;61.30
16313;DHT22;8265;52.622;13.296;2023-08-08T09:49:40;18.20;59.50
16313;DHT22;8265;52.622;13.296;2023-08-08T09:55:02;17.80;60.40
16313;DHT22;8265;52.622;13.296;2023-08-08T10:00:22;17.30;61.50
16313;DHT22;8265;52.622;13.296;2023-08-08T10:05:43;17.00;63.60
16313;DHT22;8265;52.622;13.296;2023-08-08T10:11:05;17.20;63.80
16313;DHT22;8265;52.622;13.296;2023-08-08T10:16:25;18.30;62.30
16313;DHT22;8265;52.622;13.296;2023-08-08T10:21:46;18.60;62.10
16313;DHT22;8265;52.622;13.296;2023-08-08T10:27:07;19.70;60.20
16313;DHT22;8265;52.622;13.296;2023-08-08T10:32:28;19.90;58.20
16313;DHT22;8265;52.622;13.296;2023-08-08T10:37:55;20.60;57.20
16313;DHT22;8265;52.622;13.296;2023-08-08T10:43:13;20.00;55.80
16313;DHT22;8265;52.622;13.296;2023-08-08T10:48:31;18.20;65.40
16313;DHT22;8265;52.622;13.296;2023-08-08T10:53:52;15.20;77.90
16313;DHT22;8265;52.622;13.296;2023-08-08T10:59:19;15.00;84.10
16313;DHT22;8265;52.622;13.296;2023-08-08T11:04:34;15.60;81.60
16313;DHT22;8265;52.622;13.296;2023-08-08T11:09:55;15.60;79.10
16313;DHT22;8265;52.622;13.296;2023-08-08T11:15:16;16.00;78.40
16313;DHT22;8265;52.622;13.296;2023-08-08T11:20:37;17.00;71.50
16313;DHT22;8265;52.622;13.296;2023-08-08T11:25:58;16.70;69.60
16313;DHT22;8265;52.622;13.296;2023-08-08T11:31:19;17.10;68.80
16313;DHT22;8265;52.622;13.296;2023-08-08T11:36:40;17.50;65.00
16313;DHT22;8265;52.622;13.296;2023-08-08T11:42:01;17.80;63.20
16313;DHT22;8265;52.622;13.296;2023-08-08T11:47:25;17.80;61.10
16313;DHT22;8265;52.622;13.296;2023-08-08T11:52:45;18.10;59.00
16313;DHT22;8265;52.622;13.296;2023-08-08T11:58:04;18.10;59.60
16313;DHT22;8265;52.622;13.296;2023-08-08T12:03:25;18.30;58.40
16313;DHT22;8265;52.622;13.296;2023-08-08T12:08:46;18.90;58.50
16313;DHT22;8265;52.622;13.296;2023-08-08T12:14:07;19.90;56.30
16313;DHT22;8265;52.622;13.296;2023-08-08T12:19:28;19.80;56.40
16313;DHT22;8265;52.622;13.296;2023-08-08T12:24:49;19.30;57.10
16313;DHT22;8265;52.622;13.296;2023-08-08T12:30:10;19.30;55.10
16313;DHT22;8265;52.622;13.296;2023-08-08T12:35:31;19.60;54.80
16313;DHT22;8265;52.622;13.296;2023-08-08T12:40:52;19.90;54.80
16313;DHT22;8265;52.622;13.296;2023-08-08T12:46:13;20.20;53.50
16313;DHT22;8265;52.622;13.296;2023-08-08T12:51:34;20.20;56.20
16313;DHT22;8265;52.622;13.296;2023-08-08T12:56:55;19.10;57.60
16313;DHT22;8265;52.622;13.296;2023-08-08T13:02:16;18.00;58.60
16313;DHT22;8265;52.622;13.296;2023-08-08T13:07:37;16.40;64.60
16313;DHT22;8265;52.622;13.296;2023-08-08T13:12:58;16.50;69.20
16313;DHT22;8265;52.622;13.296;2023-08-08T13:18:19;17.50;66.90
16313;DHT22;8265;52.622;13.296;2023-08-08T13:23:41;18.20;64.10
16313;DHT22;8265;52.622;13.296;2023-08-08T13:29:01;18.10;65.40
16313;DHT22;8265;52.622;13.296;2023-08-08T13:34:22;17.70;66.90
16313;DHT22;8265;52.622;13.296;2023-08-08T13:39:43;17.50;68.10
16313;DHT22;8265;52.622;13.296;2023-08-08T13:45:05;17.50;68.30
16313;DHT22;8265;52.622;13.296;2023-08-08T13:50:25;17.60;69.30
16313;DHT22;8265;52.622;13.296;2023-08-08T13:55:46;17.80;72.20
16313;DHT22;8265;52.622;13.296;2023-08-08T14:01:07;18.50;65.30
16313;DHT22;8265;52.622;13.296;2023-08-08T14:06:28;18.20;59.10
16313;DHT22;8265;52.622;13.296;2023-08-08T14:11:49;18.60;60.30
16313;DHT22;8265;52.622;13.296;2023-08-08T14:17:10;19.30;57.60
16313;DHT22;8265;52.622;13.296;2023-08-08T14:22:33;20.60;56.80
16313;DHT22;8265;52.622;13.296;2023-08-08T14:27:52;21.30;54.50
16313;DHT22;8265;52.622;13.296;2023-08-08T14:33:14;20.50;54.40
16313;DHT22;8265;52.622;13.296;2023-08-08T14:38:35;20.30;54.50
16313;DHT22;8265;52.622;13.296;2023-08-08T14:43:55;20.00;53.40
16313;DHT22;8265;52.622;13.296;2023-08-08T14:49:16;19.40;57.20
16313;DHT22;8265;52.622;13.296;2023-08-08T14:54:37;20.00;59.00
16313;DHT22;8265;52.622;13.296;2023-08-08T14:59:58;19.40;57.70
16313;DHT22;8265;52.622;13.296;2023-08-08T15:05:19;19.00;59.30
16313;DHT22;8265;52.622;13.296;2023-08-08T15:10:40;18.00;60.40
16313;DHT22;8265;52.622;13.296;2023-08-08T15:16:01;17.00;62.20
16313;DHT22;8265;52.622;13.296;2023-08-08T15:21:22;16.60;63.90
16313;DHT22;8265;52.622;13.296;2023-08-08T15:26:43;16.20;67.70
16313;DHT22;8265;52.622;13.296;2023-08-08T15:32:04;14.80;80.30
16313;DHT22;8265;52.622;13.296;2023-08-08T15:37:25;13.40;86.70
16313;DHT22;8265;52.622;13.296;2023-08-08T15:42:46;13.20;88.50
16313;DHT22;8265;52.622;13.296;2023-08-08T15:48:07;13.00;89.70
16313;DHT22;8265;52.622;13.296;2023-08-08T15:53:28;13.10;93.10
16313;DHT22;8265;52.622;13.296;2023-08-08T15:58:49;13.70;89.50
16313;DHT22;8265;52.622;13.296;2023-08-08T16:04:10;14.00;88.00
16313;DHT22;8265;52.622;13.296;2023-08-08T16:09:31;14.00;87.80
16313;DHT22;8265;52.622;13.296;2023-08-08T16:14:52;14.20;90.20
16313;DHT22;8265;52.622;13.296;2023-08-08T16:20:13;14.00;88.30
16313;DHT22;8265;52.622;13.296;2023-08-08T16:25:34;13.70;88.10
16313;DHT22;8265;52.622;13.296;2023-08-08T16:30:55;13.50;86.90
16313;DHT22;8265;52.622;13.296;2023-08-08T16:36:16;13.10;89.50
16313;DHT22;8265;52.622;13.296;2023-08-08T16:41:37;13.00;90.20
16313;DHT22;8265;52.622;13.296;2023-08-08T16:46:58;13.00;91.20
16313;DHT22;8265;52.622;13.296;2023-08-08T16:52:19;12.90;90.90
16313;DHT22;8265;52.622;13.296;2023-08-08T16:57:40;13.00;90.70
16313;DHT22;8265;52.622;13.296;2023-08-08T17:03:01;13.30;90.90
16313;DHT22;8265;52.622;13.296;2023-08-08T17:08:22;14.00;89.00
16313;DHT22;8265;52.622;13.296;2023-08-08T17:13:43;13.60;89.70
16313;DHT22;8265;52.622;13.296;2023-08-08T17:19:04;13.40;91.50
16313;DHT22;8265;52.622;13.296;2023-08-08T17:24:25;13.20;90.90
16313;DHT22;8265;52.622;13.296;2023-08-08T17:29:46;13.10;90.90
16313;DHT22;8265;52.622;13.296;2023-08-08T17:35:07;13.10;90.80
16313;DHT22;8265;52.622;13.296;2023-08-08T17:40:28;13.10;91.00
16313;DHT22;8265;52.622;13.296;2023-08-08T17:45:49;13.10;91.00
16313;DHT22;8265;52.622;13.296;2023-08-08T17:51:10;13.10;90.60
16313;DHT22;8265;52.622;13.296;2023-08-08T17:56:31;13.10;91.10
16313;DHT22;8265;52.622;13.296;2023-08-08T18:01:53;13.00;92.00
16313;DHT22;8265;52.622;13.296;2023-08-08T18:07:13;13.10;92.20
16313;DHT22;8265;52.622;13.296;2023-08-08T18:12:34;13.10;91.80
16313;DHT22;8265;52.622;13.296;2023-08-08T18:17:55;13.10;91.60
16313;DHT22;8265;52.622;13.296;2023-08-08T18:23:16;13.10;91.40
16313;DHT22;8265;52.622;13.296;2023-08-08T18:28:37;13.00;91.60
16313;DHT22;8265;52.622;13.296;2023-08-08T18:33:59;12.90;92.30
16313;DHT22;8265;52.622;13.296;2023-08-08T18:39:19;12.80;92.90
16313;DHT22;8265;52.622;13.296;2023-08-08T18:44:40;12.70;93.60
16313;DHT22;8265;52.622;13.296;2023-08-08T18:50:01;12.70;93.60
16313;DHT22;8265;52.622;13.296;2023-08-08T18:55:22;12.70;94.00
16313;DHT22;8265;52.622;13.296;2023-08-08T19:00:43;12.60;94.70
16313;DHT22;8265;52.622;13.296;2023-08-08T19:06:04;12.50;95.00
16313;DHT22;8265;52.622;13.296;2023-08-08T19:11:25;12.50;95.70
16313;DHT22;8265;52.622;13.296;2023-08-08T19:16:46;12.50;95.80
16313;DHT22;8265;52.622;13.296;2023-08-08T19:22:07;12.50;95.60
16313;DHT22;8265;52.622;13.296;2023-08-08T19:27:29;12.30;95.70
16313;DHT22;8265;52.622;13.296;2023-08-08T19:32:49;12.20;95.70
16313;DHT22;8265;52.622;13.296;2023-08-08T19:38:10;12.00;95.90
16313;DHT22;8265;52.622;13.296;2023-08-08T19:43:31;12.00;96.40
16313;DHT22;8265;52.622;13.296;2023-08-08T19:48:52;12.00;96.80
16313;DHT22;8265;52.622;13.296;2023-08-08T19:54:13;12.10;96.90
16313;DHT22;8265;52.622;13.296;2023-08-08T19:59:34;12.30;96.60
16313;DHT22;8265;52.622;13.296;2023-08-08T20:04:55;12.20;95.80
16313;DHT22;8265;52.622;13.296;2023-08-08T20:10:16;12.30;95.70
16313;DHT22;8265;52.622;13.296;2023-08-08T20:15:37;12.20;95.70
16313;DHT22;8265;52.622;13.296;2023-08-08T20:20:58;12.00;96.30
16313;DHT22;8265;52.622;13.296;2023-08-08T20:26:19;11.90;96.70
16313;DHT22;8265;52.622;13.296;2023-08-08T20:31:40;11.80;96.90
16313;DHT22;8265;52.622;13.296;2023-08-08T20:37:01;11.80;97.30
16313;DHT22;8265;52.622;13.296;2023-08-08T20:42:22;11.80;97.50
16313;DHT22;8265;52.622;13.296;2023-08-08T20:47:43;11.90;97.80
16313;DHT22;8265;52.622;13.296;2023-08-08T20:53:04;12.10;98.00
16313;DHT22;8265;52.622;13.296;2023-08-08T20:58:25;12.10;98.00
16313;DHT22;8265;52.622;13.296;2023-08-08T21:03:46;12.30;98.10
16313;DHT22;8265;52.622;13.296;2023-08-08T21:09:07;12.20;94.40
16313;DHT22;8265;52.622;13.296;2023-08-08T21:14:28;11.70;90.40
16313;DHT22;8265;52.622;13.296;2023-08-08T21:19:48;11.40;91.90
16313;DHT22;8265;52.622;13.296;2023-08-08T21:25:09;11.10;93.00
16313;DHT22;8265;52.622;13.296;2023-08-08T21:30:30;11.10;95.10
16313;DHT22;8265;52.622;13.296;2023-08-08T21:35:51;11.00;95.10
16313;DHT22;8265;52.622;13.296;2023-08-08T21:41:12;10.90;95.60
16313;DHT22;8265;52.622;13.296;2023-08-08T21:46:33;10.90;96.20
16313;DHT22;8265;52.622;13.296;2023-08-08T21:51:54;10.90;96.20
16313;DHT22;8265;52.622;13.296;2023-08-08T21:57:15;10.70;96.40
16313;DHT22;8265;52.622;13.296;2023-08-08T22:02:36;10.60;96.80
16313;DHT22;8265;52.622;13.296;2023-08-08T22:07:57;10.50;97.10
16313;DHT22;8265;52.622;13.296;2023-08-08T22:13:18;10.50;97.40
16313;DHT22;8265;52.622;13.296;2023-08-08T22:18:39;10.40;97.60
16313;DHT22;8265;52.622;13.296;2023-08-08T22:24:00;10.30;97.70
16313;DHT22;8265;52.622;13.296;2023-08-08T22:29:21;10.30;97.80
16313;DHT22;8265;52.622;13.296;2023-08-08T22:34:42;10.30;98.00
16313;DHT22;8265;52.622;13.296;2023-08-08T22:40:03;10.30;97.90
16313;DHT22;8265;52.622;13.296;2023-08-08T22:45:24;10.20;97.90
16313;DHT22;8265;52.622;13.296;2023-08-08T22:50:45;10.20;97.90
16313;DHT22;8265;52.622;13.296;2023-08-08T22:56:06;10.20;97.90
16313;DHT22;8265;52.622;13.296;2023-08-08T23:01:27;10.10;97.80
16313;DHT22;8265;52.622;13.296;2023-08-08T23:06:48;10.00;97.90
16313;DHT22;8265;52.622;13.296;2023-08-08T23:12:09;10.00;98.00
16313;DHT22;8265;52.622;13.296;2023-08-08T23:17:30;10.00;98.20
16313;DHT22;8265;52.622;13.296;2023-08-08T23:22:51;10.20;98.40
16313;DHT22;8265;52.622;13.296;2023-08-08T23:28:12;10.10;98.30
16313;DHT22;8265;52.622;13.296;2023-08-08T23:33:33;10.10;98.30
16313;DHT22;8265;52.622;13.296;2023-08-08T23:38:54;10.10;98.50
16313;DHT22;8265;52.622;13.296;2023-08-08T23:44:15;10.20;98.60
16313;DHT22;8265;52.622;13.296;2023-08-08T23:49:36;10.20;98.60
16313;DHT22;8265;52.622;13.296;2023-08-08T23:54:57;10.10;98.50
